createdAt,value
2022-08-31T00:00:39.556Z,82.69
2022-08-31T00:03:27.896Z,82.88
2022-08-31T00:05:58.887Z,82.97
2022-08-31T00:08:28.631Z,83.17
2022-08-31T00:10:57.056Z,83.22
2022-08-31T00:13:27.574Z,83.24
2022-08-31T00:15:58.033Z,83.33
2022-08-31T00:18:26.540Z,83.47
2022-08-31T00:20:55.235Z,83.67
2022-08-31T00:23:23.605Z,83.83
2022-08-31T00:25:52.870Z,83.93
2022-08-31T00:28:21.016Z,84.07
2022-08-31T00:30:49.682Z,84.16
2022-08-31T00:33:18.570Z,84.25
2022-08-31T00:35:47.818Z,84.22
2022-08-31T00:38:17.221Z,84.35
2022-08-31T00:40:47.103Z,84.53
2022-08-31T00:43:47.050Z,84.71
2022-08-31T00:46:22.739Z,84.98
2022-08-31T00:49:06.139Z,85.15
2022-08-31T00:52:05.548Z,85.41
2022-08-31T00:54:40.052Z,85.62
2022-08-31T00:57:08.949Z,85.71
2022-08-31T00:59:40.890Z,85.89
2022-08-31T01:02:09.530Z,85.89
2022-08-31T01:04:37.934Z,85.93
2022-08-31T01:07:08.074Z,86.05
2022-08-31T01:09:53.231Z,86.17
2022-08-31T01:12:26.290Z,86.29
2022-08-31T01:14:55.437Z,86.35
2022-08-31T01:17:24.126Z,86.49
2022-08-31T01:20:08.168Z,86.55
2022-08-31T01:23:00.166Z,86.63
2022-08-31T01:25:33.962Z,86.88
2022-08-31T01:28:06.577Z,86.90
2022-08-31T01:30:36.898Z,86.96
2022-08-31T01:33:06.013Z,87.08
2022-08-31T01:35:34.415Z,87.11
2022-08-31T01:38:04.550Z,87.16
2022-08-31T01:40:46.051Z,87.29
2022-08-31T01:43:14.106Z,87.32
2022-08-31T01:45:42.189Z,87.44
2022-08-31T01:48:12.354Z,87.64
2022-08-31T01:50:40.736Z,87.63
2022-08-31T01:53:09.629Z,87.73
2022-08-31T01:55:38.194Z,87.73
2022-08-31T01:58:06.884Z,87.75
2022-08-31T02:00:36.539Z,87.97
2022-08-31T02:03:08.099Z,88.05
2022-08-31T02:05:37.905Z,88.06
2022-08-31T02:08:09.622Z,88.01
2022-08-31T02:10:42.957Z,88.01
2022-08-31T02:13:11.267Z,88.10
2022-08-31T02:15:39.521Z,88.08
2022-08-31T02:18:07.939Z,88.08
2022-08-31T02:20:38.154Z,88.15
2022-08-31T02:23:06.435Z,88.15
2022-08-31T02:25:35.935Z,88.25
2022-08-31T02:28:04.723Z,88.38
2022-08-31T02:30:32.899Z,88.36
2022-08-31T02:33:01.173Z,88.40
2022-08-31T02:35:29.756Z,88.49
2022-08-31T02:37:58.135Z,88.45
2022-08-31T02:40:27.663Z,88.43
2022-08-31T02:42:56.252Z,88.46
2022-08-31T02:45:25.426Z,88.50
2022-08-31T02:47:54.515Z,88.54
2022-08-31T02:50:23.298Z,88.48
2022-08-31T02:52:53.944Z,88.66
2022-08-31T02:55:24.705Z,88.85
2022-08-31T02:57:53.794Z,88.95
2022-08-31T03:00:24.225Z,88.98
2022-08-31T03:02:52.413Z,88.99
2022-08-31T03:05:22.354Z,88.95
2022-08-31T03:07:51.033Z,88.96
2022-08-31T03:10:21.794Z,88.98
2022-08-31T03:12:51.852Z,89.06
2022-08-31T03:15:22.234Z,89.05
2022-08-31T03:17:51.645Z,89.08
2022-08-31T03:20:22.589Z,89.16
2022-08-31T03:22:51.370Z,89.16
2022-08-31T03:25:22.308Z,89.14
2022-08-31T03:27:51.299Z,89.12
2022-08-31T03:30:22.825Z,89.08
2022-08-31T03:32:51.734Z,89.09
2022-08-31T03:35:23.494Z,88.95
2022-08-31T03:37:51.892Z,88.85
2022-08-31T03:40:20.219Z,88.71
2022-08-31T03:42:48.518Z,88.61
2022-08-31T03:45:16.937Z,88.60
2022-08-31T03:47:45.155Z,88.58
2022-08-31T03:50:16.313Z,88.59
2022-08-31T03:52:44.364Z,88.54
2022-08-31T03:55:14.209Z,88.45
2022-08-31T03:57:42.799Z,88.37
2022-08-31T04:00:11.925Z,88.32
2022-08-31T04:02:41.092Z,88.24
2022-08-31T04:05:10.598Z,88.19
2022-08-31T04:07:42.987Z,88.16
2022-08-31T04:10:13.492Z,88.08
2022-08-31T04:12:42.088Z,88.02
2022-08-31T04:15:12.776Z,87.92
2022-08-31T04:17:41.489Z,87.68
2022-08-31T04:20:10.007Z,87.45
2022-08-31T04:22:38.245Z,87.43
2022-08-31T04:25:06.942Z,87.38
2022-08-31T04:27:35.208Z,87.28
2022-08-31T04:30:04.509Z,87.17
2022-08-31T04:32:32.779Z,87.03
2022-08-31T04:35:02.230Z,86.86
2022-08-31T04:37:31.012Z,86.72
2022-08-31T04:39:59.807Z,86.48
2022-08-31T04:42:30.956Z,86.28
2022-08-31T04:44:59.074Z,86.16
2022-08-31T04:47:27.078Z,85.98
2022-08-31T04:49:55.646Z,85.81
2022-08-31T04:52:28.365Z,85.63
2022-08-31T04:54:56.893Z,85.44
2022-08-31T04:57:25.262Z,85.30
2022-08-31T04:59:53.562Z,85.07
2022-08-31T05:02:21.764Z,84.87
2022-08-31T05:04:49.897Z,84.72
2022-08-31T05:07:18.463Z,84.59
2022-08-31T05:09:46.645Z,84.47
2022-08-31T05:12:21.884Z,84.28
2022-08-31T05:14:50.098Z,83.95
2022-08-31T05:17:18.231Z,83.51
2022-08-31T05:19:46.480Z,83.03
2022-08-31T05:22:14.559Z,82.17
2022-08-31T05:24:42.691Z,81.39
2022-08-31T05:27:10.922Z,80.59
2022-08-31T05:29:39.210Z,79.65
2022-08-31T05:32:07.400Z,78.92
2022-08-31T05:34:35.545Z,78.40
2022-08-31T05:37:04.338Z,78.05
2022-08-31T05:39:33.530Z,77.47
2022-08-31T05:42:01.909Z,76.51
2022-08-31T05:44:29.966Z,76.07
2022-08-31T05:47:03.831Z,76.05
2022-08-31T05:49:33.672Z,75.99
2022-08-31T05:52:03.706Z,76.01
2022-08-31T05:54:36.310Z,75.39
2022-08-31T05:57:05.018Z,74.65
2022-08-31T05:59:34.640Z,74.17
2022-08-31T06:02:03.255Z,73.79
2022-08-31T06:04:32.475Z,73.20
2022-08-31T06:07:00.692Z,72.93
2022-08-31T06:09:29.792Z,72.24
2022-08-31T06:11:57.905Z,71.52
2022-08-31T06:14:26.285Z,70.69
2022-08-31T06:16:56.411Z,69.83
2022-08-31T06:19:24.474Z,68.87
2022-08-31T06:21:52.855Z,69.12
2022-08-31T06:24:21.650Z,68.67
2022-08-31T06:26:58.307Z,67.07
2022-08-31T06:29:29.634Z,66.94
2022-08-31T06:31:57.834Z,66.90
2022-08-31T06:34:29.546Z,65.46
2022-08-31T06:36:58.001Z,65.85
2022-08-31T06:39:26.355Z,65.63
2022-08-31T06:41:58.936Z,65.84
2022-08-31T06:44:28.120Z,66.02
2022-08-31T06:46:57.115Z,65.37
2022-08-31T06:49:26.315Z,65.16
2022-08-31T06:51:54.587Z,64.89
2022-08-31T06:54:30.862Z,64.47
2022-08-31T06:56:59.549Z,64.43
2022-08-31T06:59:29.575Z,64.75
2022-08-31T07:02:00.303Z,65.09
2022-08-31T07:04:32.559Z,65.06
2022-08-31T07:07:01.149Z,64.28
2022-08-31T07:09:29.832Z,63.91
2022-08-31T07:11:58.077Z,62.66
2022-08-31T07:14:27.926Z,61.46
2022-08-31T07:16:58.283Z,60.67
2022-08-31T07:19:27.351Z,59.63
2022-08-31T07:21:58.815Z,59.13
2022-08-31T07:24:30.694Z,57.20
2022-08-31T07:27:18.699Z,56.98
2022-08-31T07:29:47.559Z,56.33
2022-08-31T07:32:17.644Z,56.35
2022-08-31T07:34:45.928Z,55.94
2022-08-31T07:37:32.711Z,55.15
2022-08-31T07:40:19.422Z,53.62
2022-08-31T07:42:47.611Z,53.47
2022-08-31T07:45:29.375Z,52.75
2022-08-31T07:48:00.696Z,52.33
2022-08-31T07:50:31.885Z,51.71
2022-08-31T07:53:00.596Z,50.11
2022-08-31T07:55:29.551Z,49.64
2022-08-31T07:57:58.284Z,48.61
2022-08-31T08:00:29.968Z,48.13
2022-08-31T08:03:01.848Z,47.24
2022-08-31T08:05:35.456Z,46.86
2022-08-31T08:08:10.544Z,46.75
2022-08-31T08:10:44.090Z,45.97
2022-08-31T08:13:16.396Z,45.72
2022-08-31T08:15:45.255Z,43.53
2022-08-31T08:18:14.312Z,43.46
2022-08-31T08:20:43.054Z,42.74
2022-08-31T08:23:15.235Z,41.94
2022-08-31T08:25:47.182Z,41.97
2022-08-31T08:28:39.871Z,41.03
2022-08-31T08:31:14.801Z,39.76
2022-08-31T08:33:43.521Z,39.31
2022-08-31T08:36:12.742Z,38.42
2022-08-31T08:38:44.120Z,38.32
2022-08-31T08:41:17.199Z,37.51
2022-08-31T08:43:52.763Z,37.11
2022-08-31T08:46:40.447Z,37.11
2022-08-31T08:49:41.633Z,37.00
2022-08-31T08:52:18.189Z,35.59
2022-08-31T08:54:48.711Z,35.42
2022-08-31T08:57:43.302Z,35.27
2022-08-31T09:00:17.074Z,34.37
2022-08-31T09:03:02.291Z,33.59
2022-08-31T09:05:57.437Z,33.59
2022-08-31T09:08:42.525Z,33.33
2022-08-31T09:11:18.908Z,32.45
2022-08-31T09:14:08.278Z,33.03
2022-08-31T09:16:40.396Z,33.20
2022-08-31T09:19:18.025Z,32.68
2022-08-31T09:21:56.159Z,31.56
2022-08-31T09:24:30.290Z,31.09
2022-08-31T09:27:20.373Z,30.28
2022-08-31T09:29:58.435Z,30.23
2022-08-31T09:32:35.925Z,29.49
2022-08-31T09:35:24.038Z,29.45
2022-08-31T09:38:02.360Z,28.56
2022-08-31T09:40:50.067Z,29.16
2022-08-31T09:43:25.134Z,27.83
2022-08-31T09:46:25.882Z,26.26
2022-08-31T09:49:03.495Z,25.34
2022-08-31T09:51:35.091Z,27.15
2022-08-31T09:54:36.051Z,27.23
2022-08-31T09:57:09.901Z,27.03
2022-08-31T09:59:38.554Z,25.96
2022-08-31T10:02:30.341Z,25.64
2022-08-31T10:05:07.017Z,25.41
2022-08-31T10:07:50.519Z,25.00
2022-08-31T10:10:34.451Z,24.14
2022-08-31T10:13:09.725Z,23.62
2022-08-31T10:15:55.171Z,23.26
2022-08-31T10:18:45.030Z,22.65
2022-08-31T10:21:21.576Z,22.59
2022-08-31T10:23:58.717Z,22.97
2022-08-31T10:26:34.335Z,23.05
2022-08-31T10:29:22.776Z,24.16
2022-08-31T10:32:07.275Z,26.33
2022-08-31T10:35:00.298Z,27.76
2022-08-31T10:37:37.108Z,27.78
2022-08-31T10:40:16.241Z,26.57
2022-08-31T10:43:18.960Z,24.99
2022-08-31T10:45:51.254Z,25.11
2022-08-31T10:48:26.430Z,24.43
2022-08-31T10:51:19.562Z,24.22
2022-08-31T10:53:56.688Z,23.49
2022-08-31T10:56:41.570Z,22.22
2022-08-31T10:59:58.003Z,21.57
2022-08-31T11:02:40.538Z,21.09
2022-08-31T11:05:30.637Z,21.11
2022-08-31T11:08:31.287Z,22.46
2022-08-31T11:14:14.052Z,26.66
2022-08-31T11:16:59.569Z,27.37
2022-08-31T11:19:31.006Z,26.25
2022-08-31T11:22:29.765Z,25.97
2022-08-31T11:25:19.376Z,24.74
2022-08-31T11:27:56.361Z,24.86
2022-08-31T11:30:30.080Z,24.64
2022-08-31T11:33:03.417Z,25.44
2022-08-31T11:35:49.975Z,26.64
2022-08-31T11:38:52.471Z,28.16
2022-08-31T11:41:39.545Z,28.98
2022-08-31T11:44:10.634Z,30.46
2022-08-31T11:46:43.453Z,31.82
2022-08-31T11:49:36.345Z,33.20
2022-08-31T11:52:10.606Z,34.11
2022-08-31T11:54:42.317Z,35.09
2022-08-31T11:57:18.550Z,35.10
2022-08-31T11:59:56.370Z,33.00
2022-08-31T12:02:24.647Z,30.64
2022-08-31T12:04:57.684Z,27.65
2022-08-31T12:07:36.684Z,26.75
2022-08-31T12:10:34.476Z,26.05
2022-08-31T12:13:19.844Z,25.01
2022-08-31T12:16:21.313Z,25.24
2022-08-31T12:19:37.226Z,24.83
2022-08-31T12:22:42.586Z,25.76
2022-08-31T12:25:27.600Z,25.62
2022-08-31T12:27:58.652Z,24.83
2022-08-31T12:30:28.638Z,23.96
2022-08-31T12:33:12.995Z,23.16
2022-08-31T12:35:41.285Z,23.35
2022-08-31T12:38:17.525Z,23.02
2022-08-31T12:40:50.738Z,22.10
2022-08-31T12:43:37.729Z,21.52
2022-08-31T12:46:42.285Z,21.00
2022-08-31T12:49:38.380Z,23.03
2022-08-31T12:52:38.575Z,25.04
2022-08-31T12:55:33.243Z,27.75
2022-08-31T12:58:23.368Z,29.23
2022-08-31T13:00:51.780Z,30.93
2022-08-31T13:03:24.702Z,31.77
2022-08-31T13:06:06.004Z,30.73
2022-08-31T13:08:46.561Z,28.50
2022-08-31T13:11:45.022Z,27.31
2022-08-31T13:14:20.131Z,25.89
2022-08-31T13:16:52.043Z,24.42
2022-08-31T13:19:48.685Z,23.05
2022-08-31T13:22:25.690Z,21.51
2022-08-31T13:24:54.374Z,20.67
2022-08-31T13:27:26.576Z,20.75
2022-08-31T13:30:19.356Z,20.87
2022-08-31T13:32:52.733Z,21.22
2022-08-31T13:35:26.001Z,20.82
2022-08-31T13:38:05.864Z,19.91
2022-08-31T13:40:38.360Z,19.77
2022-08-31T13:43:09.492Z,21.28
2022-08-31T13:45:58.336Z,21.75
2022-08-31T13:48:40.931Z,21.27
2022-08-31T13:51:18.211Z,21.62
2022-08-31T13:54:07.169Z,21.33
2022-08-31T13:56:56.185Z,21.97
2022-08-31T13:59:37.861Z,22.46
2022-08-31T14:02:26.689Z,23.12
2022-08-31T14:05:05.929Z,24.72
2022-08-31T14:07:54.291Z,25.63
2022-08-31T14:10:37.053Z,25.45
2022-08-31T14:13:18.835Z,25.33
2022-08-31T14:15:55.295Z,25.31
2022-08-31T14:18:43.171Z,23.23
2022-08-31T14:21:21.914Z,20.85
2022-08-31T14:24:01.785Z,20.00
2022-08-31T14:26:37.283Z,19.11
2022-08-31T14:29:10.942Z,19.46
2022-08-31T14:31:45.520Z,19.69
2022-08-31T14:34:24.593Z,18.79
2022-08-31T14:36:58.056Z,19.96
2022-08-31T14:39:33.530Z,21.72
2022-08-31T14:42:09.318Z,23.37
2022-08-31T14:44:44.988Z,24.59
2022-08-31T14:47:13.086Z,23.47
2022-08-31T14:49:53.011Z,23.16
2022-08-31T14:52:21.132Z,23.50
2022-08-31T14:54:49.998Z,24.26
2022-08-31T14:57:25.989Z,24.10
2022-08-31T14:59:58.149Z,23.28
2022-08-31T15:02:31.392Z,22.10
2022-08-31T15:05:04.962Z,22.11
2022-08-31T15:07:37.898Z,22.51
2022-08-31T15:10:13.123Z,22.69
2022-08-31T15:12:41.512Z,23.38
2022-08-31T15:15:11.646Z,24.34
2022-08-31T15:17:40.478Z,25.14
2022-08-31T15:20:10.524Z,25.62
2022-08-31T15:22:42.398Z,26.83
2022-08-31T15:25:12.599Z,27.99
2022-08-31T15:27:44.539Z,29.74
2022-08-31T15:30:17.608Z,31.33
2022-08-31T15:32:47.025Z,32.82
2022-08-31T15:35:19.896Z,34.01
2022-08-31T15:37:52.255Z,35.48
2022-08-31T15:40:22.175Z,36.66
2022-08-31T15:42:51.190Z,37.37
2022-08-31T15:45:19.249Z,38.67
2022-08-31T15:48:06.156Z,38.98
2022-08-31T15:50:36.227Z,39.64
2022-08-31T15:53:09.993Z,40.32
2022-08-31T15:55:41.070Z,40.97
2022-08-31T15:58:10.119Z,41.41
2022-08-31T16:00:42.217Z,41.68
2022-08-31T16:03:10.756Z,41.86
2022-08-31T16:05:43.588Z,42.30
2022-08-31T16:08:13.296Z,42.65
2022-08-31T16:10:45.381Z,43.23
2022-08-31T16:13:16.327Z,43.30
2022-08-31T16:15:51.585Z,43.84
2022-08-31T16:18:22.703Z,44.24
2022-08-31T16:20:52.221Z,44.39
2022-08-31T16:23:21.254Z,44.35
2022-08-31T16:25:49.669Z,44.58
2022-08-31T16:28:20.304Z,44.84
2022-08-31T16:30:49.454Z,45.04
2022-08-31T16:33:20.745Z,45.37
2022-08-31T16:35:49.184Z,45.88
2022-08-31T16:38:19.623Z,46.64
2022-08-31T16:40:47.906Z,46.77
2022-08-31T16:43:16.176Z,46.86
2022-08-31T16:45:44.237Z,46.95
2022-08-31T16:48:30.881Z,47.59
2022-08-31T16:51:02.439Z,48.59
2022-08-31T16:53:31.735Z,49.43
2022-08-31T16:56:03.584Z,50.05
2022-08-31T17:01:24.022Z,50.45
2022-08-31T17:03:58.616Z,50.75
2022-08-31T17:06:30.157Z,51.50
2022-08-31T17:09:02.125Z,52.20
2022-08-31T17:11:35.756Z,52.53
2022-08-31T17:14:06.414Z,52.75
2022-08-31T17:16:38.345Z,53.06
2022-08-31T17:19:11.615Z,53.46
2022-08-31T17:21:49.710Z,53.64
2022-08-31T17:24:28.432Z,54.02
2022-08-31T17:27:01.444Z,54.19
2022-08-31T17:29:34.199Z,54.49
2022-08-31T17:32:10.745Z,54.78
2022-08-31T17:34:40.283Z,54.84
2022-08-31T17:37:13.234Z,55.19
2022-08-31T17:39:44.476Z,55.34
2022-08-31T17:42:16.674Z,55.12
2022-08-31T17:44:48.345Z,54.82
2022-08-31T17:47:17.895Z,53.57
2022-08-31T17:49:46.947Z,53.70
2022-08-31T17:52:15.274Z,52.89
2022-08-31T17:54:43.518Z,52.67
2022-08-31T17:57:15.823Z,52.95
2022-08-31T17:59:49.059Z,53.15
2022-08-31T18:02:21.424Z,53.42
2022-08-31T18:04:49.838Z,53.40
2022-08-31T18:07:18.109Z,53.36
2022-08-31T18:09:47.223Z,53.27
2022-08-31T18:12:17.177Z,53.48
2022-08-31T18:14:45.431Z,53.33
2022-08-31T18:17:16.472Z,53.36
2022-08-31T18:19:46.684Z,53.45
2022-08-31T18:22:15.761Z,53.60
2022-08-31T18:24:44.278Z,53.99
2022-08-31T18:27:15.691Z,54.16
2022-08-31T18:29:45.485Z,53.78
2022-08-31T18:32:14.452Z,53.73
2022-08-31T18:34:48.160Z,53.90
2022-08-31T18:37:26.199Z,54.14
2022-08-31T18:40:12.979Z,54.77
2022-08-31T18:43:00.125Z,54.86
2022-08-31T18:45:28.710Z,55.07
2022-08-31T18:48:23.913Z,55.14
2022-08-31T18:50:49.218Z,55.57
2022-08-31T18:53:28.432Z,55.86
2022-08-31T18:56:08.151Z,56.03
2022-08-31T18:58:37.937Z,56.23
2022-08-31T19:01:10.609Z,56.69
2022-08-31T19:03:40.211Z,56.83
2022-08-31T19:06:15.787Z,56.89
2022-08-31T19:08:44.028Z,57.20
2022-08-31T19:11:13.564Z,57.48
2022-08-31T19:13:42.131Z,57.62
2022-08-31T19:16:21.324Z,58.09
2022-08-31T19:18:50.544Z,58.49
2022-08-31T19:21:23.948Z,58.66
2022-08-31T19:23:53.196Z,58.79
2022-08-31T19:26:23.630Z,58.76
2022-08-31T19:28:51.797Z,58.92
2022-08-31T19:31:23.214Z,59.31
2022-08-31T19:33:56.449Z,59.46
2022-08-31T19:36:27.744Z,59.68
2022-08-31T19:38:56.449Z,59.98
2022-08-31T19:41:26.258Z,60.30
2022-08-31T19:44:05.673Z,60.35
2022-08-31T19:46:52.499Z,60.91
2022-08-31T19:49:23.000Z,60.98
2022-08-31T19:51:58.334Z,61.27
2022-08-31T19:54:31.366Z,61.37
2022-08-31T19:57:00.367Z,62.04
2022-08-31T19:59:28.560Z,62.41
2022-08-31T20:01:57.902Z,62.62
2022-08-31T20:04:29.005Z,63.14
2022-08-31T20:06:58.192Z,63.72
2022-08-31T20:09:27.013Z,63.66
2022-08-31T20:11:56.999Z,63.81
2022-08-31T20:14:26.385Z,64.24
2022-08-31T20:16:55.154Z,64.48
2022-08-31T20:19:27.647Z,64.53
2022-08-31T20:22:08.132Z,64.79
2022-08-31T20:24:43.878Z,65.03
2022-08-31T20:27:18.717Z,65.28
2022-08-31T20:29:48.299Z,65.66
2022-08-31T20:32:16.702Z,65.64
2022-08-31T20:34:45.124Z,65.86
2022-08-31T20:37:13.322Z,66.16
2022-08-31T20:39:42.420Z,66.42
2022-08-31T20:42:10.618Z,66.78
2022-08-31T20:44:38.851Z,66.78
2022-08-31T20:47:28.248Z,66.90
2022-08-31T20:50:02.390Z,67.09
2022-08-31T20:52:35.253Z,67.30
2022-08-31T20:55:06.421Z,67.32
2022-08-31T20:57:37.780Z,67.42
2022-08-31T21:00:10.300Z,67.70
2022-08-31T21:02:42.376Z,67.94
2022-08-31T21:05:37.954Z,68.09
2022-08-31T21:08:00.290Z,68.34
2022-08-31T21:10:37.556Z,68.31
2022-08-31T21:13:09.611Z,68.60
2022-08-31T21:15:44.432Z,68.55
2022-08-31T21:18:17.754Z,68.38
2022-08-31T21:20:47.199Z,68.62
2022-08-31T21:23:15.756Z,68.78
2022-08-31T21:25:46.452Z,68.87
2022-08-31T21:28:17.981Z,69.05
2022-08-31T21:30:49.692Z,69.00
2022-08-31T21:33:18.993Z,69.07
2022-08-31T21:35:47.962Z,68.92
2022-08-31T21:38:16.282Z,68.95
2022-08-31T21:40:51.350Z,69.20
2022-08-31T21:43:20.138Z,68.93
2022-08-31T21:45:55.177Z,68.80
2022-08-31T21:48:26.013Z,68.74
2022-08-31T21:50:55.170Z,68.71
2022-08-31T21:53:26.018Z,68.80
2022-08-31T21:55:54.590Z,68.57
2022-08-31T21:58:22.721Z,68.56
2022-08-31T22:00:51.229Z,68.48
2022-08-31T22:03:22.685Z,68.52
2022-08-31T22:05:50.831Z,68.30
2022-08-31T22:08:20.278Z,68.57
2022-08-31T22:10:49.315Z,68.58
2022-08-31T22:13:20.671Z,68.63
2022-08-31T22:15:49.083Z,68.69
2022-08-31T22:18:59.319Z,68.59
2022-08-31T22:21:06.430Z,68.69
2022-08-31T22:23:35.798Z,68.63
2022-08-31T22:26:04.329Z,68.70
2022-08-31T22:28:32.545Z,68.79
2022-08-31T22:31:02.586Z,68.87
2022-08-31T22:33:30.691Z,68.88
2022-08-31T22:35:59.038Z,68.79
2022-08-31T22:38:27.826Z,68.89
2022-08-31T22:40:56.377Z,68.97
2022-08-31T22:43:24.755Z,69.41
2022-08-31T22:45:53.254Z,69.35
2022-08-31T22:48:21.554Z,69.43
2022-08-31T22:50:49.908Z,69.71
2022-08-31T22:53:18.050Z,69.84
2022-08-31T22:55:46.173Z,69.75
2022-08-31T22:58:14.159Z,69.77
2022-08-31T23:00:42.935Z,69.91
2022-08-31T23:03:14.408Z,69.88
2022-08-31T23:05:44.174Z,70.23
2022-08-31T23:08:14.161Z,70.10
2022-08-31T23:10:42.269Z,70.04
2022-08-31T23:13:10.508Z,70.28
2022-08-31T23:15:38.709Z,70.57
2022-08-31T23:18:10.172Z,70.92
2022-08-31T23:20:38.960Z,70.98
2022-08-31T23:23:07.146Z,70.92
2022-08-31T23:25:36.299Z,70.97
2022-08-31T23:28:04.684Z,71.23
2022-08-31T23:30:32.851Z,71.52
2022-08-31T23:33:02.436Z,71.95
2022-08-31T23:35:31.039Z,72.10
2022-08-31T23:38:00.995Z,72.42
2022-08-31T23:40:31.452Z,72.63
2022-08-31T23:43:00.390Z,72.79
2022-08-31T23:45:28.470Z,72.95
2022-08-31T23:47:58.134Z,73.18
2022-08-31T23:50:26.204Z,73.60
2022-08-31T23:52:54.237Z,74.06
2022-08-31T23:55:22.465Z,74.05
2022-08-31T23:57:50.699Z,74.55
